createdAt,value
2023-04-28T00:04:14.792Z,13.19
2023-04-28T00:09:17.598Z,13.25
2023-04-28T00:14:20.269Z,13.23
2023-04-28T00:19:22.677Z,13.21
2023-04-28T00:24:25.233Z,13.19
2023-04-28T00:29:29.383Z,13.14
2023-04-28T00:34:37.708Z,13.16
2023-04-28T00:39:41.896Z,13.13
2023-04-28T00:44:44.303Z,13.13
2023-04-28T00:49:49.825Z,13.08
2023-04-28T00:54:57.043Z,13.03
2023-04-28T00:59:59.874Z,13.01
2023-04-28T01:05:03.947Z,12.94
2023-04-28T01:10:08.572Z,12.94
2023-04-28T01:15:17.076Z,12.95
2023-04-28T01:20:20.907Z,12.89
2023-04-28T01:25:23.612Z,12.90
2023-04-28T01:30:26.348Z,12.87
2023-04-28T01:35:28.870Z,12.79
2023-04-28T01:40:31.421Z,12.72
2023-04-28T01:45:33.977Z,12.69
2023-04-28T01:50:38.450Z,12.63
2023-04-28T01:55:40.953Z,12.68
2023-04-28T02:00:46.984Z,12.73
2023-04-28T02:05:50.873Z,12.78
2023-04-28T02:10:53.906Z,12.86
2023-04-28T02:16:01.794Z,12.87
2023-04-28T02:21:13.688Z,12.96
2023-04-28T02:26:17.410Z,13.03
2023-04-28T02:31:20.183Z,13.15
2023-04-28T02:36:22.864Z,13.20
2023-04-28T02:41:26.661Z,13.28
2023-04-28T02:46:29.246Z,13.28
2023-04-28T02:51:35.359Z,13.39
2023-04-28T02:56:41.227Z,13.45
2023-04-28T03:01:43.900Z,13.47
2023-04-28T03:12:07.101Z,13.67
2023-04-28T03:17:10.480Z,13.74
2023-04-28T03:22:13.125Z,13.87
2023-04-28T03:27:15.787Z,14.00
2023-04-28T03:32:18.373Z,14.13
2023-04-28T03:37:20.895Z,14.26
2023-04-28T03:42:23.806Z,14.46
2023-04-28T03:47:52.220Z,14.62
2023-04-28T03:52:54.914Z,14.85
2023-04-28T03:57:58.598Z,15.07
2023-04-28T04:03:01.309Z,15.30
2023-04-28T04:08:04.263Z,15.53
2023-04-28T04:13:06.867Z,15.78
2023-04-28T04:18:09.546Z,15.99
2023-04-28T04:23:32.064Z,16.22
2023-04-28T04:28:34.612Z,16.44
2023-04-28T04:33:38.055Z,16.66
2023-04-28T04:38:42.675Z,16.83
2023-04-28T04:43:52.080Z,17.07
2023-04-28T04:48:55.558Z,17.31
2023-04-28T04:53:58.497Z,17.50
2023-04-28T04:59:03.215Z,17.81
2023-04-28T05:04:26.011Z,18.04
2023-04-28T05:09:30.692Z,18.25
2023-04-28T05:14:33.525Z,18.52
2023-04-28T05:19:36.709Z,18.67
2023-04-28T05:24:39.777Z,18.79
2023-04-28T05:29:42.552Z,18.96
2023-04-28T05:34:46.906Z,19.13
2023-04-28T05:39:49.907Z,19.30
2023-04-28T05:44:55.624Z,19.42
2023-04-28T05:49:58.315Z,19.60
2023-04-28T05:55:02.032Z,19.73
2023-04-28T06:00:07.451Z,19.86
2023-04-28T06:05:15.626Z,19.99
2023-04-28T06:10:20.689Z,20.10
2023-04-28T06:15:23.318Z,20.23
2023-04-28T06:20:26.009Z,20.38
2023-04-28T06:25:30.395Z,20.50
2023-04-28T06:30:32.985Z,20.60
2023-04-28T06:35:41.932Z,20.74
2023-04-28T06:40:45.989Z,20.90
2023-04-28T06:45:48.634Z,21.00
2023-04-28T06:50:53.099Z,21.09
2023-04-28T06:55:58.370Z,21.22
2023-04-28T07:01:04.402Z,21.38
2023-04-28T07:06:07.340Z,21.47
2023-04-28T07:11:10.042Z,21.59
2023-04-28T07:16:12.888Z,21.69
2023-04-28T07:21:15.409Z,21.77
2023-04-28T07:26:18.025Z,21.92
2023-04-28T07:31:22.126Z,22.03
2023-04-28T07:36:24.796Z,22.20
2023-04-28T07:41:28.703Z,22.35
2023-04-28T07:46:31.681Z,22.44
2023-04-28T07:51:34.521Z,22.56
2023-04-28T07:56:37.171Z,22.65
2023-04-28T08:01:39.636Z,22.79
2023-04-28T08:06:42.367Z,22.89
2023-04-28T08:11:46.126Z,23.03
2023-04-28T08:16:48.969Z,23.12
2023-04-28T08:21:51.839Z,23.29
2023-04-28T08:26:55.957Z,23.40
2023-04-28T08:31:59.376Z,23.48
2023-04-28T08:37:02.359Z,23.66
2023-04-28T08:42:05.237Z,23.81
2023-04-28T08:47:16.550Z,23.87
2023-04-28T08:52:19.905Z,24.00
2023-04-28T08:57:22.658Z,24.06
2023-04-28T09:02:25.563Z,24.19
2023-04-28T09:07:28.280Z,24.30
2023-04-28T09:12:38.555Z,24.39
2023-04-28T09:17:51.353Z,24.47
2023-04-28T09:22:56.766Z,24.63
2023-04-28T09:28:00.157Z,24.82
2023-04-28T09:33:11.264Z,24.89
2023-04-28T09:38:18.853Z,24.97
2023-04-28T09:43:29.903Z,25.13
2023-04-28T09:48:38.336Z,25.23
2023-04-28T09:53:41.122Z,25.36
2023-04-28T09:58:45.859Z,25.62
2023-04-28T10:03:50.887Z,25.71
2023-04-28T10:08:53.540Z,25.81
2023-04-28T10:13:59.439Z,25.93
2023-04-28T10:19:03.566Z,26.02
2023-04-28T10:24:31.407Z,26.20
2023-04-28T10:29:35.056Z,26.21
2023-04-28T10:34:37.784Z,26.28
2023-04-28T10:39:40.459Z,26.31
2023-04-28T10:44:43.274Z,26.74
2023-04-28T10:50:12.366Z,28.41
2023-04-28T10:55:33.036Z,29.38
2023-04-28T11:00:35.727Z,30.05
2023-04-28T11:05:38.568Z,30.46
2023-04-28T11:11:12.031Z,31.16
2023-04-28T11:16:26.190Z,31.74
2023-04-28T11:21:28.750Z,32.00
2023-04-28T11:26:38.275Z,32.48
2023-04-28T11:31:51.937Z,32.87
2023-04-28T11:37:05.983Z,33.12
2023-04-28T11:42:29.720Z,33.77
2023-04-28T11:47:43.362Z,34.14
2023-04-28T11:52:53.614Z,34.57
2023-04-28T11:58:24.077Z,34.90
2023-04-28T12:03:27.041Z,34.91
2023-04-28T12:08:30.340Z,35.17
2023-04-28T12:13:33.104Z,35.57
2023-04-28T12:24:03.476Z,35.95
2023-04-28T12:29:06.255Z,36.12
2023-04-28T12:34:08.827Z,35.97
2023-04-28T12:39:21.853Z,35.86
2023-04-28T12:44:25.007Z,36.05
2023-04-28T12:49:28.750Z,34.84
2023-04-28T12:54:31.644Z,33.53
2023-04-28T12:59:34.310Z,33.12
2023-04-28T13:04:37.295Z,33.92
2023-04-28T13:09:40.030Z,34.07
2023-04-28T13:14:47.906Z,34.43
2023-04-28T13:19:53.437Z,34.42
2023-04-28T13:24:56.455Z,32.97
2023-04-28T13:29:59.501Z,32.47
2023-04-28T13:35:02.499Z,33.49
2023-04-28T13:40:06.637Z,34.20
2023-04-28T13:45:09.501Z,34.47
2023-04-28T13:50:12.065Z,34.24
2023-04-28T13:55:14.960Z,33.53
2023-04-28T14:00:17.941Z,32.33
2023-04-28T14:05:20.638Z,30.28
2023-04-28T14:10:23.660Z,28.93
2023-04-28T14:15:26.286Z,27.99
2023-04-28T14:20:29.047Z,27.15
2023-04-28T14:25:34.367Z,26.49
2023-04-28T14:30:37.279Z,26.03
2023-04-28T14:35:42.146Z,25.59
2023-04-28T14:40:45.080Z,25.29
2023-04-28T14:45:47.832Z,25.00
2023-04-28T14:50:51.711Z,24.79
2023-04-28T14:55:56.027Z,24.59
2023-04-28T15:01:00.819Z,24.41
2023-04-28T15:06:03.825Z,24.25
2023-04-28T15:11:06.715Z,24.12
2023-04-28T15:16:09.433Z,24.23
2023-04-28T15:21:12.428Z,24.06
2023-04-28T15:26:15.008Z,23.59
2023-04-28T15:31:17.597Z,23.26
2023-04-28T15:36:23.108Z,23.05
2023-04-28T15:41:25.627Z,22.77
2023-04-28T15:46:29.232Z,22.50
2023-04-28T15:51:31.757Z,22.21
2023-04-28T15:56:34.534Z,22.00
2023-04-28T16:01:37.122Z,21.75
2023-04-28T16:06:39.705Z,21.55
2023-04-28T16:11:42.446Z,21.28
2023-04-28T16:16:45.048Z,21.07
2023-04-28T16:21:47.685Z,20.90
2023-04-28T16:26:51.554Z,20.76
2023-04-28T16:31:54.165Z,20.66
2023-04-28T16:36:57.432Z,20.59
2023-04-28T16:42:01.216Z,20.46
2023-04-28T16:47:04.813Z,20.45
2023-04-28T16:52:09.890Z,20.32
2023-04-28T16:57:12.661Z,20.28
2023-04-28T17:02:17.904Z,20.19
2023-04-28T17:07:20.434Z,20.06
2023-04-28T17:12:23.751Z,19.94
2023-04-28T17:17:26.247Z,19.78
2023-04-28T17:22:31.127Z,19.58
2023-04-28T17:27:33.787Z,19.48
2023-04-28T17:32:37.744Z,19.34
2023-04-28T17:37:40.400Z,19.21
2023-04-28T17:42:43.685Z,19.11
2023-04-28T17:47:46.926Z,19.06
2023-04-28T17:52:50.244Z,19.02
2023-04-28T17:57:53.134Z,18.99
2023-04-28T18:02:55.981Z,18.92
2023-04-28T18:08:05.469Z,18.74
2023-04-28T18:13:10.866Z,18.76
2023-04-28T18:18:13.728Z,18.73
2023-04-28T18:23:16.316Z,18.65
2023-04-28T18:28:19.000Z,18.54
2023-04-28T18:33:23.527Z,18.44
2023-04-28T18:38:26.489Z,18.34
2023-04-28T18:43:32.201Z,18.11
2023-04-28T18:48:37.891Z,18.13
2023-04-28T18:53:40.613Z,18.08
2023-04-28T18:58:43.238Z,18.02
2023-04-28T19:03:46.090Z,17.96
2023-04-28T19:08:48.857Z,17.83
2023-04-28T19:13:51.646Z,17.73
2023-04-28T19:18:54.645Z,17.67
2023-04-28T19:23:57.824Z,17.65
2023-04-28T19:29:01.514Z,17.60
2023-04-28T19:34:04.075Z,17.52
2023-04-28T19:39:08.475Z,17.50
2023-04-28T19:44:11.166Z,17.40
2023-04-28T19:49:13.819Z,17.36
2023-04-28T19:54:17.009Z,17.37
2023-04-28T19:59:19.730Z,17.35
2023-04-28T20:04:22.651Z,17.35
2023-04-28T20:09:25.304Z,17.31
2023-04-28T20:14:27.996Z,17.35
2023-04-28T20:19:30.629Z,17.39
2023-04-28T20:24:36.248Z,17.36
2023-04-28T20:29:42.084Z,17.36
2023-04-28T20:34:45.789Z,17.43
2023-04-28T20:39:48.939Z,17.49
2023-04-28T20:44:54.378Z,17.53
2023-04-28T20:49:56.763Z,17.51
2023-04-28T20:54:59.462Z,17.52
2023-04-28T21:00:01.974Z,17.54
2023-04-28T21:05:07.947Z,17.50
2023-04-28T21:10:10.944Z,17.40
2023-04-28T21:15:13.747Z,17.23
2023-04-28T21:20:16.385Z,17.14
2023-04-28T21:25:19.292Z,16.99
2023-04-28T21:30:22.298Z,16.87
2023-04-28T21:35:24.991Z,16.76
2023-04-28T21:40:30.167Z,16.63
2023-04-28T21:45:33.043Z,16.54
2023-04-28T21:50:36.857Z,16.41
2023-04-28T21:55:40.233Z,16.32
2023-04-28T22:00:46.831Z,16.21
2023-04-28T22:05:49.721Z,16.13
2023-04-28T22:10:52.385Z,16.01
2023-04-28T22:15:56.386Z,15.90
2023-04-28T22:20:59.054Z,15.82
2023-04-28T22:26:02.065Z,15.75
2023-04-28T22:31:04.691Z,15.70
2023-04-28T22:36:07.697Z,15.62
2023-04-28T22:41:10.254Z,15.62
2023-04-28T22:46:12.838Z,15.59
2023-04-28T22:51:16.164Z,15.49
2023-04-28T22:56:19.372Z,15.48
2023-04-28T23:01:21.989Z,15.39
2023-04-28T23:06:25.200Z,15.30
2023-04-28T23:11:27.705Z,15.23
2023-04-28T23:16:30.419Z,15.22
2023-04-28T23:21:33.114Z,15.18
2023-04-28T23:26:35.689Z,15.15
2023-04-28T23:31:40.288Z,15.07
2023-04-28T23:36:43.040Z,15.01
2023-04-28T23:41:45.595Z,14.99
2023-04-28T23:46:49.454Z,14.90
2023-04-28T23:51:52.079Z,14.85
2023-04-28T23:56:54.781Z,14.72
